createdAt,value
2024-01-22T00:01:23.989Z,102199.38
2024-01-22T00:04:26.758Z,102194.16
2024-01-22T00:07:29.522Z,102188.88
2024-01-22T00:10:32.211Z,102182.03
2024-01-22T00:13:34.873Z,102177.69
2024-01-22T00:16:41.096Z,102172.47
2024-01-22T00:19:43.955Z,102185.19
2024-01-22T00:22:46.708Z,102194.41
2024-01-22T00:25:49.374Z,102195.59
2024-01-22T00:28:52.007Z,102209.44
2024-01-22T00:31:54.666Z,102211.53
2024-01-22T00:34:57.378Z,102202.00
2024-01-22T00:38:00.118Z,102174.81
2024-01-22T00:41:05.417Z,102185.69
2024-01-22T00:44:08.205Z,102171.97
2024-01-22T00:47:11.098Z,102166.69
2024-01-22T00:50:14.144Z,102171.75
2024-01-22T00:53:16.810Z,102168.38
2024-01-22T00:56:19.492Z,102162.56
2024-01-22T00:59:22.143Z,102158.25
2024-01-22T01:02:24.789Z,102157.63
2024-01-22T01:05:28.111Z,102166.88
2024-01-22T01:08:33.468Z,102150.66
2024-01-22T01:11:36.277Z,102154.88
2024-01-22T01:14:38.977Z,102145.66
2024-01-22T01:17:41.690Z,102137.91
2024-01-22T01:20:44.508Z,102127.59
2024-01-22T01:23:47.173Z,102134.56
2024-01-22T01:26:53.081Z,102121.19
2024-01-22T01:29:55.821Z,102114.75
2024-01-22T01:32:58.724Z,102112.63
2024-01-22T01:36:01.608Z,102092.91
2024-01-22T01:39:04.610Z,102118.66
2024-01-22T01:42:07.644Z,102122.78
2024-01-22T01:45:18.069Z,102125.09
2024-01-22T01:48:21.504Z,102122.28
2024-01-22T01:51:25.602Z,102121.25
2024-01-22T01:54:29.897Z,102117.69
2024-01-22T01:57:33.037Z,102119.34
2024-01-22T02:00:36.131Z,102114.34
2024-01-22T02:03:41.639Z,102109.44
2024-01-22T02:06:44.538Z,102095.31
2024-01-22T02:09:52.314Z,102090.28
2024-01-22T02:12:54.948Z,102088.56
2024-01-22T02:15:57.690Z,102085.91
2024-01-22T02:19:00.549Z,102081.41
2024-01-22T02:22:03.254Z,102069.47
2024-01-22T02:25:06.474Z,102061.63
2024-01-22T02:28:09.313Z,102059.63
2024-01-22T02:31:11.976Z,102058.59
2024-01-22T02:34:14.698Z,102057.75
2024-01-22T02:37:17.455Z,102058.72
2024-01-22T02:40:20.109Z,102072.91
2024-01-22T02:43:22.774Z,102068.63
2024-01-22T02:46:28.438Z,102062.00
2024-01-22T02:49:31.208Z,102061.25
2024-01-22T02:52:33.884Z,102033.72
2024-01-22T02:55:36.560Z,102054.81
2024-01-22T02:58:39.316Z,102056.56
2024-01-22T03:01:42.073Z,102060.25
2024-01-22T03:04:45.176Z,102060.94
2024-01-22T03:07:47.832Z,102056.47
2024-01-22T03:10:50.757Z,102059.81
2024-01-22T03:13:53.421Z,102059.09
2024-01-22T03:16:56.051Z,102072.03
2024-01-22T03:19:58.708Z,102074.41
2024-01-22T03:23:01.325Z,102072.00
2024-01-22T03:26:03.943Z,102083.91
2024-01-22T03:29:06.634Z,102089.09
2024-01-22T03:32:09.290Z,102082.47
2024-01-22T03:35:11.944Z,102087.53
2024-01-22T03:38:15.034Z,102072.28
2024-01-22T03:41:18.037Z,102079.53
2024-01-22T03:44:20.691Z,102076.06
2024-01-22T03:47:23.400Z,102057.63
2024-01-22T03:50:26.117Z,102068.22
2024-01-22T03:53:28.941Z,102054.38
2024-01-22T03:56:31.555Z,102048.50
2024-01-22T03:59:38.551Z,102054.38
2024-01-22T04:02:41.316Z,102057.97
2024-01-22T04:05:44.299Z,102038.66
2024-01-22T04:08:47.542Z,102046.88
2024-01-22T04:11:50.391Z,102052.31
2024-01-22T04:14:53.327Z,102054.84
2024-01-22T04:17:56.093Z,102061.59
2024-01-22T04:20:58.952Z,102066.63
2024-01-22T04:24:01.693Z,102054.69
2024-01-22T04:27:04.628Z,102039.41
2024-01-22T04:30:08.046Z,102032.75
2024-01-22T04:33:13.656Z,102026.72
2024-01-22T04:36:16.564Z,102025.69
2024-01-22T04:39:20.846Z,102039.25
2024-01-22T04:42:23.680Z,102044.81
2024-01-22T04:45:26.398Z,102044.16
2024-01-22T04:48:29.296Z,102032.28
2024-01-22T04:51:32.004Z,102037.28
2024-01-22T04:54:34.652Z,102032.34
2024-01-22T04:57:37.330Z,102023.81
2024-01-22T05:00:40.003Z,102044.00
2024-01-22T05:03:42.687Z,102037.19
2024-01-22T05:06:45.537Z,102037.59
2024-01-22T05:09:48.340Z,102036.84
2024-01-22T05:12:51.074Z,102031.88
2024-01-22T05:15:53.796Z,102026.59
2024-01-22T05:18:58.912Z,102025.16
2024-01-22T05:22:01.733Z,102031.22
2024-01-22T05:25:04.922Z,102026.97
2024-01-22T05:28:07.585Z,102031.91
2024-01-22T05:31:10.297Z,102028.72
2024-01-22T05:34:13.021Z,102034.53
2024-01-22T05:37:15.774Z,102017.19
2024-01-22T05:40:18.504Z,102025.59
2024-01-22T05:43:21.193Z,102028.94
2024-01-22T05:46:23.861Z,102020.31
2024-01-22T05:49:29.998Z,102019.25
2024-01-22T05:52:33.435Z,102025.88
2024-01-22T05:55:36.701Z,102027.78
2024-01-22T05:58:39.354Z,102034.31
2024-01-22T06:01:42.354Z,102040.34
2024-01-22T06:04:45.101Z,102033.47
2024-01-22T06:07:49.048Z,102024.28
2024-01-22T06:10:52.282Z,102034.91
2024-01-22T06:14:01.775Z,102035.00
2024-01-22T06:17:12.233Z,102033.06
2024-01-22T06:20:15.355Z,102045.75
2024-01-22T06:23:18.201Z,102042.44
2024-01-22T06:26:26.983Z,102047.50
2024-01-22T06:29:31.494Z,102046.59
2024-01-22T06:32:34.478Z,101996.50
2024-01-22T06:35:38.106Z,102035.50
2024-01-22T06:38:40.901Z,102039.75
2024-01-22T06:41:43.591Z,102045.63
2024-01-22T06:44:46.257Z,102046.91
2024-01-22T06:47:49.418Z,102052.13
2024-01-22T06:50:52.690Z,102039.34
2024-01-22T06:53:55.369Z,102042.78
2024-01-22T06:56:58.078Z,102041.56
2024-01-22T07:00:06.290Z,102041.81
2024-01-22T07:03:09.829Z,102039.97
2024-01-22T07:06:12.735Z,102043.66
2024-01-22T07:09:17.402Z,102030.94
2024-01-22T07:12:21.342Z,102030.69
2024-01-22T07:15:24.275Z,102035.56
2024-01-22T07:18:27.090Z,102034.44
2024-01-22T07:21:29.858Z,102038.38
2024-01-22T07:24:32.983Z,102031.38
2024-01-22T07:27:39.137Z,102032.06
2024-01-22T07:30:41.814Z,102038.66
2024-01-22T07:33:44.733Z,102034.78
2024-01-22T07:36:48.053Z,102041.44
2024-01-22T07:39:50.711Z,102038.50
2024-01-22T07:42:53.590Z,102031.56
2024-01-22T07:45:58.233Z,102023.66
2024-01-22T07:49:01.996Z,102022.41
2024-01-22T07:52:04.938Z,102019.75
2024-01-22T07:55:09.224Z,102017.78
2024-01-22T07:58:14.138Z,102018.38
2024-01-22T08:01:17.048Z,102016.19
2024-01-22T08:04:19.925Z,102021.72
2024-01-22T08:07:23.944Z,102018.16
2024-01-22T08:10:26.750Z,102020.34
2024-01-22T08:13:29.488Z,102015.78
2024-01-22T08:16:32.166Z,102015.34
2024-01-22T08:19:36.224Z,102014.91
2024-01-22T08:22:39.797Z,102006.75
2024-01-22T08:25:42.468Z,102008.28
2024-01-22T08:28:46.298Z,102018.25
2024-01-22T08:31:49.023Z,102003.34
2024-01-22T08:34:51.912Z,102014.66
2024-01-22T08:37:56.110Z,102008.75
2024-01-22T08:40:58.784Z,101993.72
2024-01-22T08:44:03.333Z,102011.75
2024-01-22T08:47:06.029Z,102012.59
2024-01-22T08:50:09.007Z,102006.03
2024-01-22T08:53:11.915Z,102002.78
2024-01-22T08:56:17.293Z,101989.97
2024-01-22T08:59:20.008Z,101988.38
2024-01-22T09:02:22.630Z,101995.53
2024-01-22T09:05:25.334Z,101995.53
2024-01-22T09:08:28.430Z,102002.03
2024-01-22T09:11:31.008Z,102004.25
2024-01-22T09:14:33.654Z,101997.22
2024-01-22T09:17:38.331Z,101995.53
2024-01-22T09:20:41.091Z,101988.16
2024-01-22T09:23:43.808Z,101991.13
2024-01-22T09:26:46.904Z,101990.31
2024-01-22T09:29:52.154Z,101993.94
2024-01-22T09:32:59.190Z,101991.97
2024-01-22T09:36:05.222Z,101985.66
2024-01-22T09:39:08.666Z,101976.47
2024-01-22T09:42:15.707Z,101974.59
2024-01-22T09:45:19.467Z,101967.28
2024-01-22T09:48:22.614Z,101953.84
2024-01-22T09:51:25.501Z,101948.44
2024-01-22T09:54:30.966Z,101935.28
2024-01-22T09:57:34.004Z,101937.88
2024-01-22T10:00:39.210Z,101915.53
2024-01-22T10:03:42.494Z,101920.38
2024-01-22T10:06:47.542Z,101917.34
2024-01-22T10:09:50.291Z,101913.13
2024-01-22T10:13:05.503Z,101904.59
2024-01-22T10:16:11.662Z,101899.91
2024-01-22T10:19:14.427Z,101902.09
2024-01-22T10:22:21.063Z,101886.75
2024-01-22T10:25:24.552Z,101867.59
2024-01-22T10:28:27.278Z,101869.38
2024-01-22T10:31:31.191Z,101868.03
2024-01-22T10:34:45.085Z,101863.72
2024-01-22T10:38:05.866Z,101861.66
2024-01-22T10:41:21.714Z,101841.09
2024-01-22T10:44:25.070Z,101832.00
2024-01-22T10:47:31.424Z,101826.81
2024-01-22T10:50:37.954Z,101824.22
2024-01-22T10:53:41.327Z,101817.13
2024-01-22T10:56:51.863Z,101807.56
2024-01-22T11:00:00.853Z,101810.19
2024-01-22T11:03:05.894Z,101801.81
2024-01-22T11:06:10.902Z,101794.19
2024-01-22T11:09:18.286Z,101777.84
2024-01-22T11:12:23.708Z,101775.91
2024-01-22T11:15:26.510Z,101772.06
2024-01-22T11:18:31.242Z,101769.34
2024-01-22T11:21:45.113Z,101756.47
2024-01-22T11:25:04.245Z,101763.47
2024-01-22T11:28:10.630Z,101756.13
2024-01-22T11:31:27.210Z,101744.19
2024-01-22T11:34:39.850Z,101732.56
2024-01-22T11:37:45.104Z,101728.44
2024-01-22T11:40:54.100Z,101726.59
2024-01-22T11:43:57.422Z,101727.53
2024-01-22T11:47:06.841Z,101719.91
2024-01-22T11:50:09.989Z,101701.47
2024-01-22T11:53:12.859Z,101692.34
2024-01-22T11:56:16.635Z,101678.31
2024-01-22T11:59:19.455Z,101671.16
2024-01-22T12:02:22.318Z,101656.59
2024-01-22T12:05:25.166Z,101649.16
2024-01-22T12:08:28.391Z,101644.38
2024-01-22T12:11:50.698Z,101639.34
2024-01-22T12:15:00.303Z,101625.16
2024-01-22T12:18:04.447Z,101631.66
2024-01-22T12:21:09.403Z,101612.41
2024-01-22T12:24:16.314Z,101619.84
2024-01-22T12:27:21.356Z,101611.16
2024-01-22T12:30:25.124Z,101604.09
2024-01-22T12:33:29.720Z,101598.41
2024-01-22T12:36:35.334Z,101593.56
2024-01-22T12:39:38.929Z,101590.88
2024-01-22T12:42:48.432Z,101577.13
2024-01-22T12:46:04.479Z,101573.53
2024-01-22T12:49:07.358Z,101569.53
2024-01-22T12:52:11.630Z,101560.34
2024-01-22T12:55:18.138Z,101557.38
2024-01-22T12:58:21.310Z,101553.72
2024-01-22T13:01:24.201Z,101539.47
2024-01-22T13:04:27.185Z,101538.53
2024-01-22T13:07:30.125Z,101538.13
2024-01-22T13:10:34.814Z,101531.94
2024-01-22T13:13:37.697Z,101534.97
2024-01-22T13:16:40.589Z,101532.72
2024-01-22T13:19:43.827Z,101527.25
2024-01-22T13:22:46.666Z,101526.47
2024-01-22T13:25:49.802Z,101531.84
2024-01-22T13:28:53.592Z,101517.16
2024-01-22T13:31:57.171Z,101511.09
2024-01-22T13:35:00.269Z,101507.41
2024-01-22T13:38:05.672Z,101508.34
2024-01-22T13:41:08.918Z,101508.84
2024-01-22T13:44:16.472Z,101509.13
2024-01-22T13:47:32.979Z,101506.34
2024-01-22T13:50:40.352Z,101514.28
2024-01-22T13:53:46.420Z,101507.16
2024-01-22T13:56:49.809Z,101509.00
2024-01-22T13:59:52.809Z,101505.44
2024-01-22T14:02:55.623Z,101496.88
2024-01-22T14:05:58.528Z,101498.00
2024-01-22T14:09:01.559Z,101490.06
2024-01-22T14:12:06.623Z,101500.97
2024-01-22T14:15:11.145Z,101498.25
2024-01-22T14:18:18.353Z,101504.31
2024-01-22T14:21:21.924Z,101501.19
2024-01-22T14:24:24.741Z,101496.44
2024-01-22T14:27:27.605Z,101488.59
2024-01-22T14:30:31.212Z,101478.94
2024-01-22T14:33:34.109Z,101471.34
2024-01-22T14:36:37.167Z,101459.78
2024-01-22T14:39:40.266Z,101446.94
2024-01-22T14:42:43.242Z,101442.41
2024-01-22T14:45:46.080Z,101440.41
2024-01-22T14:48:55.686Z,101438.94
2024-01-22T14:52:04.545Z,101441.44
2024-01-22T14:55:08.442Z,101433.94
2024-01-22T14:58:11.214Z,101427.97
2024-01-22T15:01:13.888Z,101432.75
2024-01-22T15:04:16.729Z,101435.47
2024-01-22T15:07:19.623Z,101440.16
2024-01-22T15:10:22.388Z,101429.81
2024-01-22T15:13:25.076Z,101422.47
2024-01-22T15:16:29.078Z,101413.88
2024-01-22T15:19:32.018Z,101406.44
2024-01-22T15:22:34.973Z,101397.75
2024-01-22T15:25:37.862Z,101410.25
2024-01-22T15:28:42.182Z,101406.47
2024-01-22T15:31:47.407Z,101395.69
2024-01-22T15:34:50.479Z,101394.25
2024-01-22T15:37:53.247Z,101388.72
2024-01-22T15:40:56.516Z,101383.97
2024-01-22T15:43:59.982Z,101388.31
2024-01-22T15:47:02.699Z,101381.91
2024-01-22T15:50:06.455Z,101381.50
2024-01-22T15:53:09.203Z,101379.84
2024-01-22T15:56:12.184Z,101377.66
2024-01-22T15:59:14.896Z,101375.84
2024-01-22T16:02:17.617Z,101374.03
2024-01-22T16:05:20.453Z,101378.41
2024-01-22T16:08:23.464Z,101373.94
2024-01-22T16:11:29.439Z,101368.09
2024-01-22T16:14:32.228Z,101360.75
2024-01-22T16:17:35.014Z,101370.34
2024-01-22T16:20:39.649Z,101379.16
2024-01-22T16:23:42.396Z,101367.13
2024-01-22T16:26:45.204Z,101362.56
2024-01-22T16:29:49.976Z,101359.44
2024-01-22T16:32:53.039Z,101362.31
2024-01-22T16:35:56.823Z,101343.50
2024-01-22T16:39:01.484Z,101338.50
2024-01-22T16:42:05.889Z,101345.44
2024-01-22T16:45:08.984Z,101343.28
2024-01-22T16:48:12.390Z,101336.66
2024-01-22T16:51:15.337Z,101331.91
2024-01-22T16:54:18.210Z,101331.41
2024-01-22T16:57:21.126Z,101325.78
2024-01-22T17:00:24.241Z,101320.25
2024-01-22T17:03:27.835Z,101324.44
2024-01-22T17:06:30.924Z,101318.03
2024-01-22T17:09:34.138Z,101310.34
2024-01-22T17:12:39.740Z,101311.53
2024-01-22T17:15:46.667Z,101305.22
2024-01-22T17:18:50.558Z,101303.00
2024-01-22T17:21:55.177Z,101288.25
2024-01-22T17:24:58.979Z,101278.44
2024-01-22T17:28:01.968Z,101292.88
2024-01-22T17:31:06.595Z,101285.88
2024-01-22T17:34:10.079Z,101283.25
2024-01-22T17:37:13.910Z,101290.59
2024-01-22T17:40:16.940Z,101293.47
2024-01-22T17:43:19.780Z,101271.88
2024-01-22T17:46:23.212Z,101274.50
2024-01-22T17:49:26.150Z,101264.28
2024-01-22T17:52:29.345Z,101261.66
2024-01-22T17:55:34.365Z,101256.34
2024-01-22T17:58:37.300Z,101248.31
2024-01-22T18:01:40.336Z,101246.47
2024-01-22T18:04:43.661Z,101236.38
2024-01-22T18:07:46.781Z,101232.88
2024-01-22T18:10:50.907Z,101227.19
2024-01-22T18:13:53.969Z,101224.13
2024-01-22T18:16:56.848Z,101227.25
2024-01-22T18:19:59.666Z,101221.94
2024-01-22T18:23:02.777Z,101211.88
2024-01-22T18:26:05.619Z,101209.06
2024-01-22T18:29:09.751Z,101214.31
2024-01-22T18:32:12.805Z,101205.47
2024-01-22T18:35:16.110Z,101203.50
2024-01-22T18:38:18.930Z,101198.28
2024-01-22T18:41:26.352Z,101189.59
2024-01-22T18:44:29.150Z,101195.59
2024-01-22T18:47:32.760Z,101188.00
2024-01-22T18:50:36.995Z,101177.13
2024-01-22T18:53:41.434Z,101174.06
2024-01-22T18:56:46.770Z,101176.84
2024-01-22T18:59:50.773Z,101170.34
2024-01-22T19:02:55.041Z,101164.44
2024-01-22T19:06:03.246Z,101163.59
2024-01-22T19:09:09.242Z,101145.84
2024-01-22T19:12:12.042Z,101132.91
2024-01-22T19:15:14.879Z,101120.63
2024-01-22T19:18:17.834Z,101143.94
2024-01-22T19:21:20.678Z,101134.78
2024-01-22T19:24:23.532Z,101128.28
2024-01-22T19:27:26.318Z,101138.81
2024-01-22T19:30:29.613Z,101142.06
2024-01-22T19:33:32.694Z,101133.91
2024-01-22T19:36:35.461Z,101127.44
2024-01-22T19:39:38.408Z,101123.56
2024-01-22T19:42:41.200Z,101118.88
2024-01-22T19:45:44.381Z,101103.84
2024-01-22T19:48:47.175Z,101094.78
2024-01-22T19:51:50.440Z,101108.16
2024-01-22T19:54:53.321Z,101094.19
2024-01-22T19:57:56.146Z,101090.72
2024-01-22T20:00:59.465Z,101088.34
2024-01-22T20:04:02.617Z,101079.78
2024-01-22T20:07:06.898Z,101084.66
2024-01-22T20:10:10.535Z,101081.94
2024-01-22T20:13:13.323Z,101078.50
2024-01-22T20:16:16.348Z,101074.31
2024-01-22T20:19:19.427Z,101079.56
2024-01-22T20:22:22.578Z,101072.75
2024-01-22T20:25:25.256Z,101073.50
2024-01-22T20:28:28.329Z,101061.44
2024-01-22T20:31:31.217Z,101055.31
2024-01-22T20:34:34.243Z,101048.41
2024-01-22T20:37:38.763Z,101042.41
2024-01-22T20:40:43.416Z,101030.97
2024-01-22T20:43:46.487Z,101033.25
2024-01-22T20:46:49.304Z,101033.00
2024-01-22T20:49:52.510Z,101041.78
2024-01-22T20:52:55.327Z,101046.25
2024-01-22T20:55:58.176Z,101052.50
2024-01-22T20:59:01.683Z,101048.25
2024-01-22T21:02:04.687Z,101031.19
2024-01-22T21:05:09.215Z,101021.69
2024-01-22T21:08:12.226Z,101019.97
2024-01-22T21:11:14.974Z,101030.50
2024-01-22T21:14:17.737Z,101025.25
2024-01-22T21:17:20.495Z,101022.69
2024-01-22T21:20:23.650Z,101033.25
2024-01-22T21:23:26.488Z,101027.66
2024-01-22T21:26:29.629Z,101023.69
2024-01-22T21:29:32.840Z,101023.78
2024-01-22T21:32:35.538Z,101031.69
2024-01-22T21:35:38.224Z,101029.13
2024-01-22T21:38:40.916Z,101021.88
2024-01-22T21:41:43.686Z,101019.88
2024-01-22T21:44:47.175Z,101017.03
2024-01-22T21:47:50.437Z,101018.25
2024-01-22T21:50:53.566Z,101025.09
2024-01-22T21:53:56.273Z,101035.03
2024-01-22T21:56:59.351Z,101035.69
2024-01-22T22:00:07.522Z,101032.47
2024-01-22T22:03:17.449Z,101028.88
2024-01-22T22:06:20.519Z,101027.31
2024-01-22T22:09:25.329Z,101040.91
2024-01-22T22:12:28.188Z,101042.94
2024-01-22T22:15:31.132Z,101034.81
2024-01-22T22:18:34.064Z,101042.16
2024-01-22T22:21:52.989Z,101033.75
2024-01-22T22:24:55.700Z,101037.53
2024-01-22T22:27:58.517Z,101030.06
2024-01-22T22:31:01.185Z,101030.06
2024-01-22T22:34:05.119Z,101021.50
2024-01-22T22:37:07.885Z,101028.50
2024-01-22T22:40:11.417Z,101025.03
2024-01-22T22:43:14.494Z,101044.53
2024-01-22T22:46:17.145Z,101039.25
2024-01-22T22:49:19.893Z,101034.25
2024-01-22T22:52:22.688Z,101044.19
2024-01-22T22:55:25.344Z,101046.16
2024-01-22T22:58:29.383Z,101040.41
2024-01-22T23:01:32.171Z,101043.53
2024-01-22T23:04:35.225Z,101046.34
2024-01-22T23:07:38.068Z,101045.09
2024-01-22T23:10:40.720Z,101035.88
2024-01-22T23:13:43.956Z,101027.06
2024-01-22T23:16:46.616Z,101030.53
2024-01-22T23:19:49.795Z,101026.09
2024-01-22T23:22:52.535Z,101017.44
2024-01-22T23:25:55.663Z,101013.69
2024-01-22T23:28:58.328Z,100991.47
2024-01-22T23:32:01.007Z,101002.66
2024-01-22T23:35:04.597Z,101004.88
2024-01-22T23:38:07.240Z,101001.66
2024-01-22T23:41:10.518Z,100993.34
2024-01-22T23:44:13.313Z,100991.88
2024-01-22T23:47:16.015Z,100997.06
2024-01-22T23:50:19.166Z,101002.47
2024-01-22T23:53:21.981Z,100997.38
2024-01-22T23:56:25.422Z,100990.97
2024-01-22T23:59:28.207Z,100994.44
